Time;durP1;ratioP1;P1;durP2;ratioP2;P2;SDS_P1;SDS_P2;PMS_P1;PMS_P2;Temp;Humidity;BMP_temperature;BMP_pressure;BME280_temperature;BME280_humidity;BME280_pressure;Samples;Min_cycle;Max_cycle;Signal;HPM_P1;HPM_P2
2023/12/30 00:01:47;;;;;;;12.73;10.45;;;21.10;82.00;;;;;;5000778;28;20201;-53
2023/12/30 00:04:19;;;;;;;12.48;11.18;;;21.10;82.00;;;;;;5001327;28;20660;-54
2023/12/30 00:06:46;;;;;;;15.63;11.88;;;21.10;82.00;;;;;;4994047;28;20576;-60
2023/12/30 00:09:17;;;;;;;11.38;9.93;;;21.10;82.20;;;;;;4988390;28;20202;-60
2023/12/30 00:11:44;;;;;;;17.77;11.13;;;21.10;82.10;;;;;;4988176;28;20208;-60
2023/12/30 00:14:11;;;;;;;15.75;11.32;;;21.10;82.40;;;;;;5002605;28;20199;-60
2023/12/30 00:16:39;;;;;;;14.43;11.32;;;21.10;82.60;;;;;;5010899;28;20789;-59
2023/12/30 00:19:06;;;;;;;12.85;10.10;;;21.00;82.40;;;;;;5009427;28;20544;-59
2023/12/30 00:21:34;;;;;;;13.10;10.30;;;21.00;82.30;;;;;;5008850;28;20211;-60
2023/12/30 00:24:03;;;;;;;14.48;10.85;;;21.00;82.50;;;;;;5002687;28;20212;-60
2023/12/30 00:26:39;;;;;;;12.65;10.43;;;21.00;82.40;;;;;;4999953;28;20195;-60
2023/12/30 00:29:09;;;;;;;13.15;9.60;;;21.00;82.60;;;;;;5008715;28;20552;-60
2023/12/30 00:31:37;;;;;;;11.27;9.80;;;20.90;82.30;;;;;;5003999;28;20215;-59
2023/12/30 00:34:05;;;;;;;11.88;10.05;;;21.00;82.50;;;;;;4999740;28;20466;-60
2023/12/30 00:36:34;;;;;;;14.25;8.38;;;20.90;82.20;;;;;;5003890;28;20227;-60
2023/12/30 00:39:00;;;;;;;10.98;9.77;;;20.90;82.50;;;;;;5002103;28;20197;-60
2023/12/30 00:41:35;;;;;;;14.88;9.85;;;20.90;82.60;;;;;;5002441;28;20207;-60
2023/12/30 00:44:05;;;;;;;10.63;9.60;;;20.90;82.60;;;;;;5006804;28;20199;-60
2023/12/30 00:46:35;;;;;;;15.52;10.57;;;20.90;82.40;;;;;;5007028;28;20902;-60
2023/12/30 00:49:01;;;;;;;12.40;9.50;;;20.90;82.70;;;;;;5011865;28;20203;-60
2023/12/30 00:51:30;;;;;;;10.40;8.40;;;20.90;82.60;;;;;;5006198;28;20198;-60
2023/12/30 00:54:01;;;;;;;12.53;10.43;;;20.90;82.60;;;;;;5004762;28;20199;-60
2023/12/30 00:56:33;;;;;;;12.63;9.85;;;20.90;82.50;;;;;;4994663;28;20841;-60
2023/12/30 00:59:06;;;;;;;12.75;8.95;;;20.90;82.50;;;;;;5006893;28;20197;-59
2023/12/30 01:01:38;;;;;;;13.48;9.65;;;20.90;82.60;;;;;;4999476;28;20195;-60
2023/12/30 01:04:09;;;;;;;12.40;9.77;;;20.80;82.50;;;;;;5008296;28;20208;-59
2023/12/30 01:06:36;;;;;;;10.80;9.70;;;20.80;82.60;;;;;;5004960;28;20478;-60
2023/12/30 01:09:04;;;;;;;11.75;8.60;;;20.80;82.30;;;;;;5005131;28;21568;-60
2023/12/30 01:11:34;;;;;;;10.43;7.90;;;20.80;82.50;;;;;;4999961;28;20597;-58
2023/12/30 01:14:04;;;;;;;9.48;8.00;;;20.80;82.50;;;;;;5000386;28;20196;-60
2023/12/30 01:16:34;;;;;;;12.10;8.47;;;20.80;82.60;;;;;;5001599;28;20220;-60
2023/12/30 01:19:01;;;;;;;9.90;8.90;;;20.80;82.30;;;;;;5009203;28;20516;-59
2023/12/30 01:21:34;;;;;;;9.40;8.48;;;20.80;82.40;;;;;;5008286;28;20685;-60
2023/12/30 01:24:01;;;;;;;9.50;7.95;;;20.70;82.10;;;;;;5003571;28;20195;-60
2023/12/30 01:26:29;;;;;;;11.48;9.00;;;20.70;82.30;;;;;;5002406;28;20207;-59
2023/12/30 01:28:59;;;;;;;9.80;8.70;;;20.70;82.40;;;;;;5002986;28;20685;-60
2023/12/30 01:31:29;;;;;;;11.35;8.45;;;20.70;82.20;;;;;;5005582;28;20209;-60
2023/12/30 01:33:56;;;;;;;10.47;8.10;;;20.70;82.70;;;;;;5005112;28;20555;-60
2023/12/30 01:36:22;;;;;;;12.27;9.27;;;20.70;82.60;;;;;;5006631;28;21006;-60
2023/12/30 01:38:51;;;;;;;9.43;8.40;;;20.70;82.20;;;;;;4996460;28;20667;-60
2023/12/30 01:41:21;;;;;;;12.15;8.20;;;20.70;82.70;;;;;;5004842;28;20206;-60
2023/12/30 01:43:49;;;;;;;10.55;8.35;;;20.70;82.50;;;;;;4996536;28;20786;-60
2023/12/30 01:46:16;;;;;;;11.55;7.93;;;20.70;82.40;;;;;;5002938;28;20703;-61
2023/12/30 01:48:44;;;;;;;9.65;7.97;;;20.70;82.40;;;;;;5006998;28;20195;-61
2023/12/30 01:51:11;;;;;;;10.52;8.15;;;20.70;82.50;;;;;;5004721;28;20199;-60
2023/12/30 01:53:42;;;;;;;9.05;8.13;;;20.70;82.50;;;;;;5004825;28;20671;-60
2023/12/30 01:56:09;;;;;;;11.45;8.30;;;20.70;82.60;;;;;;5006015;28;20227;-61
2023/12/30 01:58:37;;;;;;;8.97;8.07;;;20.60;82.30;;;;;;5005793;28;20199;-61
2023/12/30 02:01:12;;;;;;;9.55;8.55;;;20.60;82.60;;;;;;5004996;28;20460;-61
2023/12/30 02:03:39;;;;;;;8.85;7.95;;;20.60;82.50;;;;;;5001848;28;20278;-60
2023/12/30 02:06:08;;;;;;;9.77;8.73;;;20.70;82.70;;;;;;4991059;28;20210;-60
2023/12/30 02:08:37;;;;;;;12.52;8.68;;;20.60;82.60;;;;;;4993312;28;20204;-60
2023/12/30 02:11:04;;;;;;;8.95;7.70;;;20.60;82.30;;;;;;4995813;28;20199;-60
2023/12/30 02:13:33;;;;;;;10.20;7.32;;;20.60;82.60;;;;;;4996854;28;20315;-59
2023/12/30 02:16:04;;;;;;;10.68;7.57;;;20.60;82.60;;;;;;4996625;28;20887;-58
2023/12/30 02:18:37;;;;;;;8.95;8.05;;;20.60;82.50;;;;;;4992461;28;20195;-58
2023/12/30 02:21:04;;;;;;;8.93;7.53;;;20.60;82.80;;;;;;4997268;28;20922;-60
2023/12/30 02:23:35;;;;;;;9.65;7.28;;;20.60;82.80;;;;;;4990828;28;20460;-61
2023/12/30 02:26:10;;;;;;;8.65;7.50;;;20.60;82.90;;;;;;4991855;28;20213;-60
2023/12/30 02:28:37;;;;;;;9.75;7.90;;;20.60;82.60;;;;;;4989410;28;20566;-60
2023/12/30 02:31:04;;;;;;;8.23;7.43;;;20.60;82.90;;;;;;4993138;28;21726;-60
2023/12/30 02:33:31;;;;;;;9.02;7.38;;;20.60;82.50;;;;;;4993205;28;20349;-60
2023/12/30 02:35:58;;;;;;;11.65;8.40;;;20.60;82.90;;;;;;4995701;28;20226;-59
2023/12/30 02:38:25;;;;;;;8.25;6.80;;;20.60;82.80;;;;;;4991371;28;20868;-60
2023/12/30 02:40:54;;;;;;;8.52;7.53;;;20.60;82.60;;;;;;4995268;28;20428;-61
2023/12/30 02:43:20;;;;;;;8.70;7.20;;;20.60;82.60;;;;;;4986982;28;22253;-60
2023/12/30 02:45:47;;;;;;;8.82;7.78;;;20.60;82.60;;;;;;4990353;28;20814;-60
2023/12/30 02:48:15;;;;;;;8.73;7.28;;;20.60;82.60;;;;;;4993581;28;20212;-60
2023/12/30 02:50:45;;;;;;;8.45;7.60;;;20.50;82.50;;;;;;4999576;28;20227;-60
2023/12/30 02:53:14;;;;;;;9.85;7.15;;;20.50;82.60;;;;;;4990349;28;20200;-60
2023/12/30 02:55:46;;;;;;;9.98;8.10;;;20.50;82.60;;;;;;4983657;28;20835;-60
2023/12/30 02:58:16;;;;;;;7.68;6.95;;;20.50;82.60;;;;;;4991737;28;20886;-60
2023/12/30 03:00:46;;;;;;;9.32;7.55;;;20.50;82.60;;;;;;4989273;28;21689;-60
2023/12/30 03:03:13;;;;;;;10.75;7.20;;;20.50;82.80;;;;;;4989082;28;20204;-59
2023/12/30 03:05:39;;;;;;;10.90;8.30;;;20.50;82.90;;;;;;4989628;28;20753;-58
2023/12/30 03:08:06;;;;;;;7.30;6.60;;;20.50;82.60;;;;;;4995832;28;20454;-60
2023/12/30 03:10:37;;;;;;;9.10;7.65;;;20.50;82.70;;;;;;4994138;28;20210;-60
2023/12/30 03:13:04;;;;;;;7.88;6.20;;;20.50;82.80;;;;;;4993195;28;20205;-60
2023/12/30 03:15:34;;;;;;;7.97;6.63;;;20.50;82.60;;;;;;4991014;28;20222;-60
2023/12/30 03:18:06;;;;;;;9.07;7.03;;;20.50;82.60;;;;;;4996391;28;20600;-60
2023/12/30 03:20:33;;;;;;;7.50;6.70;;;20.50;82.60;;;;;;4991982;28;20199;-59
2023/12/30 03:22:59;;;;;;;10.52;7.75;;;20.50;82.60;;;;;;4987306;28;20211;-62
2023/12/30 03:25:26;;;;;;;8.38;6.57;;;20.50;82.50;;;;;;4991286;28;20215;-62
2023/12/30 03:27:55;;;;;;;10.77;6.82;;;20.50;82.40;;;;;;4992478;28;20200;-62
2023/12/30 03:30:21;;;;;;;8.30;6.10;;;20.50;82.80;;;;;;4989970;28;20304;-60
2023/12/30 03:32:56;;;;;;;7.20;6.50;;;20.40;82.60;;;;;;4991088;28;20477;-61
2023/12/30 03:35:25;;;;;;;8.68;6.63;;;20.40;82.60;;;;;;4990186;28;20195;-60
2023/12/30 03:37:53;;;;;;;7.13;5.95;;;20.50;82.60;;;;;;4989970;28;20210;-60
2023/12/30 03:40:20;;;;;;;7.00;6.32;;;20.50;82.50;;;;;;4989577;28;20207;-61
2023/12/30 03:42:51;;;;;;;8.73;6.35;;;20.40;82.60;;;;;;4988744;28;20202;-61
2023/12/30 03:45:19;;;;;;;7.05;6.43;;;20.40;82.60;;;;;;4989640;28;20199;-61
2023/12/30 03:47:47;;;;;;;8.70;7.43;;;20.40;82.70;;;;;;4993847;28;20200;-60
2023/12/30 03:50:18;;;;;;;7.30;6.15;;;20.40;83.00;;;;;;4990855;28;20195;-61
2023/12/30 03:52:46;;;;;;;7.28;6.68;;;20.40;82.70;;;;;;4989676;28;20196;-60
2023/12/30 03:55:15;;;;;;;9.32;5.93;;;20.40;82.60;;;;;;4992682;28;20195;-61
2023/12/30 03:57:42;;;;;;;6.55;5.95;;;20.40;82.80;;;;;;4991114;28;22566;-61
2023/12/30 04:00:09;;;;;;;8.13;6.10;;;20.40;82.80;;;;;;4991091;28;20199;-60
2023/12/30 04:02:42;;;;;;;6.97;6.18;;;20.40;82.60;;;;;;4991471;28;20762;-61
2023/12/30 04:05:09;;;;;;;6.72;5.57;;;20.40;82.60;;;;;;4991309;28;20687;-61
2023/12/30 04:07:40;;;;;;;7.25;6.30;;;20.40;82.50;;;;;;4995209;28;20206;-61
2023/12/30 04:10:08;;;;;;;6.43;5.30;;;20.40;82.40;;;;;;4991799;28;20203;-61
2023/12/30 04:12:35;;;;;;;6.88;6.18;;;20.40;82.40;;;;;;4996468;28;20656;-61
2023/12/30 04:15:02;;;;;;;9.20;5.93;;;20.40;82.40;;;;;;4996518;28;20276;-61
2023/12/30 04:17:29;;;;;;;6.43;5.38;;;20.40;82.50;;;;;;5003431;28;20691;-62
2023/12/30 04:19:55;;;;;;;7.25;5.90;;;20.40;82.50;;;;;;4996116;28;20218;-60
2023/12/30 04:22:27;;;;;;;7.40;6.60;;;20.40;82.50;;;;;;4993475;28;20210;-61
2023/12/30 04:24:59;;;;;;;6.30;5.70;;;20.40;82.60;;;;;;4993648;28;20219;-62
2023/12/30 04:27:34;;;;;;;6.90;5.38;;;20.30;82.60;;;;;;4996260;28;21162;-59
2023/12/30 04:30:01;;;;;;;5.68;4.97;;;20.40;82.60;;;;;;4997636;28;20662;-61
2023/12/30 04:32:32;;;;;;;8.27;6.20;;;20.30;83.00;;;;;;4995430;28;20203;-61
2023/12/30 04:34:59;;;;;;;6.70;5.47;;;20.30;82.50;;;;;;4999909;28;20199;-62
2023/12/30 04:37:29;;;;;;;8.65;6.25;;;20.30;82.60;;;;;;5000873;28;20237;-61
2023/12/30 04:40:00;;;;;;;7.47;5.75;;;20.30;82.50;;;;;;4996501;28;20687;-61
2023/12/30 04:42:27;;;;;;;6.13;5.45;;;20.30;82.50;;;;;;4998958;28;20199;-61
2023/12/30 04:44:55;;;;;;;8.07;6.20;;;20.30;82.60;;;;;;4995465;28;20199;-61
2023/12/30 04:47:27;;;;;;;5.93;5.30;;;20.40;82.50;;;;;;4995839;28;20291;-60
2023/12/30 04:49:55;;;;;;;5.75;5.05;;;20.30;82.60;;;;;;4992840;28;20738;-62
2023/12/30 04:52:24;;;;;;;8.93;6.13;;;20.30;82.60;;;;;;4996574;28;20199;-60
2023/12/30 04:54:54;;;;;;;8.23;6.20;;;20.30;82.40;;;;;;4993194;28;20527;-61
2023/12/30 04:57:23;;;;;;;6.40;5.70;;;20.30;82.50;;;;;;5002688;28;20813;-61
2023/12/30 04:59:50;;;;;;;7.70;6.28;;;20.30;82.50;;;;;;4992091;28;20198;-61
2023/12/30 05:02:18;;;;;;;6.95;6.25;;;20.30;82.80;;;;;;4999743;28;20196;-61
2023/12/30 05:04:45;;;;;;;7.78;5.40;;;20.30;82.60;;;;;;4999916;28;20333;-60
2023/12/30 05:07:18;;;;;;;5.35;4.80;;;20.30;82.60;;;;;;4994276;28;20194;-61
2023/12/30 05:09:45;;;;;;;5.30;4.80;;;20.30;82.60;;;;;;4988402;28;27122;-61
2023/12/30 05:12:12;;;;;;;6.60;5.85;;;20.30;82.90;;;;;;4995966;28;20761;-59
2023/12/30 05:14:42;;;;;;;6.30;4.97;;;20.30;82.90;;;;;;4997083;28;20798;-61
2023/12/30 05:17:15;;;;;;;6.05;4.78;;;20.20;82.80;;;;;;4996217;28;20224;-60
2023/12/30 05:19:50;;;;;;;5.97;5.35;;;20.20;82.70;;;;;;4989525;28;20652;-61
2023/12/30 05:22:19;;;;;;;6.38;5.53;;;20.20;82.80;;;;;;4997360;28;20199;-61
2023/12/30 05:24:47;;;;;;;6.07;4.85;;;20.20;82.60;;;;;;4993412;28;20195;-61
2023/12/30 05:27:14;;;;;;;6.95;6.00;;;20.30;82.70;;;;;;5000544;28;20656;-61
2023/12/30 05:29:44;;;;;;;6.18;5.00;;;20.20;82.60;;;;;;4998961;28;20824;-61
2023/12/30 05:32:14;;;;;;;6.85;5.68;;;20.20;82.50;;;;;;4997879;28;20204;-61
2023/12/30 05:34:40;;;;;;;6.50;5.75;;;20.20;82.50;;;;;;4996823;28;20360;-61
2023/12/30 05:37:10;;;;;;;7.97;6.13;;;20.20;82.40;;;;;;4995075;28;20228;-61
2023/12/30 05:39:39;;;;;;;5.18;4.68;;;20.20;82.50;;;;;;4988913;28;20555;-62
2023/12/30 05:42:06;;;;;;;6.35;5.72;;;20.20;82.50;;;;;;4996028;28;20297;-61
2023/12/30 05:44:34;;;;;;;5.68;4.80;;;20.20;82.70;;;;;;4994582;28;20910;-61
2023/12/30 05:47:02;;;;;;;5.35;4.85;;;20.20;82.60;;;;;;4991463;28;20211;-61
2023/12/30 05:49:29;;;;;;;5.70;4.95;;;20.20;82.80;;;;;;4994775;28;20203;-61
2023/12/30 05:51:57;;;;;;;5.57;4.00;;;20.20;82.70;;;;;;4999397;28;20199;-60
2023/12/30 05:54:32;;;;;;;5.30;4.40;;;20.20;82.60;;;;;;4989594;28;20405;-61
2023/12/30 05:57:00;;;;;;;5.95;4.97;;;20.20;82.80;;;;;;4998210;28;21205;-60
2023/12/30 05:59:28;;;;;;;5.05;4.50;;;20.20;82.50;;;;;;4991982;28;20794;-61
2023/12/30 06:01:56;;;;;;;5.88;5.30;;;20.20;82.80;;;;;;4995517;28;20575;-61
2023/12/30 06:04:24;;;;;;;6.75;5.00;;;20.20;82.50;;;;;;4996459;28;20203;-61
2023/12/30 06:06:52;;;;;;;5.40;4.75;;;20.20;82.50;;;;;;4991542;28;20210;-61
2023/12/30 06:09:22;;;;;;;5.28;4.78;;;20.20;83.20;;;;;;4993335;28;20200;-60
2023/12/30 06:11:54;;;;;;;5.72;4.68;;;20.10;82.50;;;;;;4995182;28;20869;-62
2023/12/30 06:14:21;;;;;;;5.20;4.30;;;20.20;82.80;;;;;;4996806;28;20203;-61
2023/12/30 06:16:48;;;;;;;7.13;4.97;;;20.20;82.80;;;;;;4992789;28;20304;-61
2023/12/30 06:19:17;;;;;;;6.45;4.82;;;20.20;82.90;;;;;;4994718;28;21290;-61
2023/12/30 06:21:46;;;;;;;4.50;4.10;;;20.10;82.60;;;;;;4995002;28;20203;-61
2023/12/30 06:24:13;;;;;;;6.28;4.60;;;20.20;83.00;;;;;;4993053;28;21469;-61
2023/12/30 06:26:40;;;;;;;4.38;3.97;;;20.20;82.90;;;;;;4993322;28;20216;-61
2023/12/30 06:29:08;;;;;;;4.70;4.30;;;20.20;82.50;;;;;;4993599;28;20202;-60
2023/12/30 06:31:42;;;;;;;6.38;5.38;;;20.20;82.70;;;;;;4994448;28;23559;-62
2023/12/30 06:34:09;;;;;;;5.07;3.97;;;20.20;82.70;;;;;;5001677;28;20428;-62
2023/12/30 06:36:38;;;;;;;4.90;4.30;;;20.20;82.60;;;;;;4992803;28;20821;-59
2023/12/30 06:39:09;;;;;;;6.53;4.78;;;20.10;82.70;;;;;;4993751;28;20203;-61
2023/12/30 06:41:36;;;;;;;6.85;5.00;;;20.10;82.40;;;;;;4996478;28;20215;-62
2023/12/30 06:44:02;;;;;;;4.88;4.40;;;20.10;82.50;;;;;;4991753;28;20198;-61
2023/12/30 06:46:33;;;;;;;5.28;4.72;;;20.20;82.60;;;;;;4991513;28;20579;-60
2023/12/30 06:49:00;;;;;;;4.57;3.72;;;20.10;83.40;;;;;;4991125;28;20683;-60
2023/12/30 06:51:30;;;;;;;4.72;4.28;;;20.10;82.60;;;;;;4993760;28;20681;-60
2023/12/30 06:53:57;;;;;;;4.55;4.07;;;20.10;82.70;;;;;;4985428;28;22127;-60
2023/12/30 06:56:26;;;;;;;5.68;3.97;;;20.10;82.70;;;;;;4995777;28;20195;-60
2023/12/30 06:58:55;;;;;;;5.10;4.60;;;20.10;82.70;;;;;;4992157;28;21480;-59
2023/12/30 07:01:21;;;;;;;4.78;4.35;;;20.10;82.60;;;;;;4992612;28;20196;-60
2023/12/30 07:03:48;;;;;;;5.20;4.53;;;20.10;82.70;;;;;;5002663;28;20533;-59
2023/12/30 07:06:15;;;;;;;5.00;4.60;;;20.10;82.50;;;;;;4994490;28;20842;-60
2023/12/30 07:08:45;;;;;;;4.95;4.13;;;20.10;82.70;;;;;;4993061;28;20525;-60
2023/12/30 07:11:11;;;;;;;5.72;4.47;;;20.10;82.60;;;;;;4999697;28;20480;-60
2023/12/30 07:13:41;;;;;;;5.32;4.15;;;20.10;82.60;;;;;;4991540;28;20667;-60
2023/12/30 07:16:12;;;;;;;4.20;3.83;;;20.00;82.60;;;;;;4990333;28;20234;-60
2023/12/30 07:18:40;;;;;;;4.47;4.07;;;20.10;82.60;;;;;;4993385;28;20234;-60
2023/12/30 07:21:09;;;;;;;4.82;4.00;;;20.10;82.40;;;;;;5000716;28;20619;-60
2023/12/30 07:23:36;;;;;;;5.05;3.90;;;20.10;82.50;;;;;;4988717;28;20207;-60
2023/12/30 07:26:03;;;;;;;5.60;3.95;;;20.10;82.70;;;;;;4994815;28;20196;-60
2023/12/30 07:28:31;;;;;;;4.40;4.00;;;20.10;82.70;;;;;;4993765;28;20414;-60
2023/12/30 07:30:59;;;;;;;4.45;4.05;;;20.10;82.90;;;;;;4985137;28;20196;-59
2023/12/30 07:33:27;;;;;;;7.05;4.45;;;20.10;82.80;;;;;;4996569;28;20660;-60
2023/12/30 07:35:57;;;;;;;4.10;3.70;;;20.10;83.00;;;;;;4993995;28;20207;-59
2023/12/30 07:38:26;;;;;;;5.03;4.22;;;20.10;83.00;;;;;;4989572;28;20264;-60
2023/12/30 07:40:53;;;;;;;5.43;3.85;;;20.10;83.10;;;;;;4993725;28;20199;-59
2023/12/30 07:43:26;;;;;;;4.60;4.20;;;20.10;83.10;;;;;;4994239;28;21570;-60
2023/12/30 07:45:54;;;;;;;3.95;3.55;;;20.10;83.00;;;;;;4991282;28;20207;-60
2023/12/30 07:48:23;;;;;;;5.25;4.05;;;20.10;82.90;;;;;;4994985;28;20211;-60
2023/12/30 07:50:50;;;;;;;4.35;3.80;;;20.10;83.00;;;;;;4996109;28;20199;-60
2023/12/30 07:53:17;;;;;;;4.37;3.97;;;20.20;83.00;;;;;;4997221;28;24158;-60
2023/12/30 07:55:43;;;;;;;4.00;3.65;;;20.20;83.00;;;;;;4999656;28;20461;-60
2023/12/30 07:58:12;;;;;;;3.90;3.42;;;20.20;83.20;;;;;;4998394;28;20222;-59
2023/12/30 08:00:39;;;;;;;4.25;3.85;;;20.20;83.00;;;;;;4996159;28;20731;-60
2023/12/30 08:03:09;;;;;;;4.63;4.05;;;20.20;83.00;;;;;;4995412;28;20203;-61
2023/12/30 08:05:42;;;;;;;3.70;3.30;;;20.20;83.40;;;;;;4995877;28;20200;-60
2023/12/30 08:08:09;;;;;;;4.57;3.95;;;20.30;83.50;;;;;;4995730;28;20204;-59
2023/12/30 08:10:37;;;;;;;3.58;3.28;;;20.30;83.20;;;;;;4996237;28;20196;-60
2023/12/30 08:13:05;;;;;;;4.30;3.40;;;20.30;83.20;;;;;;4996751;28;21705;-61
2023/12/30 08:15:35;;;;;;;3.50;3.20;;;20.30;83.30;;;;;;4998640;28;20211;-60
2023/12/30 08:18:06;;;;;;;3.95;3.55;;;20.30;83.30;;;;;;4995894;28;20223;-60
2023/12/30 08:20:32;;;;;;;3.08;2.67;;;20.30;83.10;;;;;;4998710;28;20199;-61
2023/12/30 08:23:06;;;;;;;4.30;3.90;;;20.40;83.00;;;;;;4995764;28;20196;-60
2023/12/30 08:25:36;;;;;;;4.80;3.60;;;20.40;83.00;;;;;;4995655;28;20569;-60
2023/12/30 08:28:09;;;;;;;5.00;3.25;;;20.40;83.10;;;;;;4993877;28;20273;-60
2023/12/30 08:30:37;;;;;;;3.55;3.25;;;20.40;83.10;;;;;;4995641;28;20901;-60
2023/12/30 08:33:07;;;;;;;4.53;3.65;;;20.40;83.10;;;;;;4998319;28;20294;-60
2023/12/30 08:35:36;;;;;;;4.70;3.50;;;20.40;82.90;;;;;;4999225;28;20815;-61
2023/12/30 08:38:04;;;;;;;3.42;3.13;;;20.40;83.00;;;;;;4999481;28;21206;-61
2023/12/30 08:40:33;;;;;;;3.87;3.27;;;20.40;82.90;;;;;;4995309;28;20204;-60
2023/12/30 08:43:01;;;;;;;2.97;2.70;;;20.40;82.80;;;;;;4991232;28;20460;-61
2023/12/30 08:45:30;;;;;;;4.45;3.65;;;20.40;83.00;;;;;;4993190;28;20474;-60
2023/12/30 08:48:03;;;;;;;3.65;3.33;;;20.50;83.00;;;;;;4991198;28;20200;-60
2023/12/30 08:50:31;;;;;;;3.22;2.92;;;20.50;82.80;;;;;;4994586;28;20196;-61
2023/12/30 08:53:00;;;;;;;3.38;3.08;;;20.50;82.80;;;;;;4989716;28;20200;-59
2023/12/30 08:55:31;;;;;;;4.07;3.67;;;20.50;82.90;;;;;;4992051;28;20214;-59
2023/12/30 08:57:57;;;;;;;4.55;3.53;;;20.50;82.90;;;;;;4994059;28;20876;-60
2023/12/30 09:00:26;;;;;;;3.55;3.17;;;20.50;82.90;;;;;;4988625;28;20397;-59
2023/12/30 09:02:57;;;;;;;3.42;3.13;;;20.50;83.00;;;;;;4998289;28;21691;-58
2023/12/30 09:05:26;;;;;;;5.93;3.15;;;20.50;82.80;;;;;;4993404;28;20196;-59
2023/12/30 09:07:53;;;;;;;3.92;3.20;;;20.50;82.90;;;;;;4994367;28;20200;-59
2023/12/30 09:10:20;;;;;;;3.23;2.93;;;20.50;82.80;;;;;;4989167;28;20292;-59
2023/12/30 09:12:48;;;;;;;3.13;2.83;;;20.50;82.90;;;;;;4996033;28;20458;-57
2023/12/30 09:15:15;;;;;;;4.55;3.40;;;20.60;82.80;;;;;;5006736;28;20454;-57
2023/12/30 09:17:42;;;;;;;3.43;2.70;;;20.50;82.80;;;;;;5001617;28;20690;-58
2023/12/30 09:20:15;;;;;;;5.00;3.40;;;20.60;82.80;;;;;;5007344;28;20455;-58
2023/12/30 09:22:42;;;;;;;2.83;2.63;;;20.60;82.80;;;;;;5003893;28;20246;-58
2023/12/30 09:25:09;;;;;;;3.58;3.20;;;20.60;82.90;;;;;;5006960;28;20591;-57
2023/12/30 09:27:38;;;;;;;3.75;2.95;;;20.60;82.80;;;;;;5000228;28;20257;-58
2023/12/30 09:30:08;;;;;;;2.77;2.57;;;20.60;82.90;;;;;;4991274;28;20607;-59
2023/12/30 09:32:34;;;;;;;3.20;2.83;;;20.60;82.90;;;;;;4997173;28;21106;-56
2023/12/30 09:35:05;;;;;;;4.15;2.95;;;20.60;82.90;;;;;;4992876;28;20203;-58
2023/12/30 09:37:31;;;;;;;3.10;2.80;;;20.60;82.80;;;;;;4992110;28;20226;-58
2023/12/30 09:40:00;;;;;;;2.60;2.40;;;20.60;82.80;;;;;;5004388;28;20814;-58
2023/12/30 09:42:33;;;;;;;3.25;2.95;;;20.60;82.80;;;;;;4995345;28;20421;-58
2023/12/30 09:45:01;;;;;;;4.13;2.80;;;20.60;82.80;;;;;;4989616;28;20191;-58
2023/12/30 09:47:30;;;;;;;2.88;2.67;;;20.60;82.80;;;;;;4995925;28;20212;-58
2023/12/30 09:50:00;;;;;;;2.92;2.70;;;20.60;82.60;;;;;;4992855;28;20226;-59
2023/12/30 09:52:35;;;;;;;3.78;3.28;;;20.60;82.80;;;;;;4993594;28;20282;-57
2023/12/30 09:55:02;;;;;;;3.47;3.17;;;20.60;82.60;;;;;;4985505;28;20980;-58
2023/12/30 09:57:32;;;;;;;2.95;2.65;;;20.60;82.60;;;;;;4992965;28;20453;-58
2023/12/30 10:00:02;;;;;;;3.45;3.15;;;20.60;82.70;;;;;;4993988;28;20550;-57
2023/12/30 10:02:33;;;;;;;3.63;3.33;;;20.60;82.20;;;;;;4992082;28;20249;-59
2023/12/30 10:05:01;;;;;;;4.40;2.53;;;20.60;81.50;;;;;;4993838;28;20193;-59
2023/12/30 10:07:40;;;;;;;4.00;3.13;;;20.60;81.40;;;;;;4994821;28;21270;-56
2023/12/30 10:10:08;;;;;;;3.20;2.70;;;20.60;81.50;;;;;;4992633;28;20580;-58
2023/12/30 10:12:37;;;;;;;3.00;2.70;;;20.60;81.70;;;;;;4989535;28;20350;-59
2023/12/30 10:15:04;;;;;;;3.17;2.83;;;20.60;81.70;;;;;;4990638;28;20200;-57
2023/12/30 10:17:32;;;;;;;3.40;3.08;;;20.60;81.70;;;;;;4988947;28;20199;-60
2023/12/30 10:20:03;;;;;;;3.13;2.50;;;20.60;81.80;;;;;;4991933;28;20752;-58
2023/12/30 10:22:34;;;;;;;4.60;3.07;;;20.60;81.80;;;;;;4992354;28;20465;-58
2023/12/30 10:25:10;;;;;;;3.22;2.63;;;20.60;81.80;;;;;;4989378;28;21298;-58
2023/12/30 10:27:37;;;;;;;3.20;2.90;;;20.60;81.80;;;;;;4994228;28;20496;-58
2023/12/30 10:30:05;;;;;;;5.57;3.05;;;20.60;81.80;;;;;;4990923;28;20203;-57
2023/12/30 10:32:36;;;;;;;3.35;2.90;;;20.60;81.80;;;;;;4988073;28;20206;-59
2023/12/30 10:35:02;;;;;;;2.40;2.20;;;20.60;81.80;;;;;;4992932;28;20200;-55
2023/12/30 10:37:30;;;;;;;3.25;2.95;;;20.60;81.80;;;;;;4990735;28;20223;-59
2023/12/30 10:39:59;;;;;;;2.67;2.47;;;20.60;81.80;;;;;;4988907;28;20496;-59
2023/12/30 10:42:26;;;;;;;3.25;2.33;;;20.60;81.80;;;;;;4988093;28;20959;-59
2023/12/30 10:45:03;;;;;;;2.40;2.13;;;20.60;81.90;;;;;;4989893;28;20799;-56
2023/12/30 10:47:36;;;;;;;2.40;2.20;;;20.60;81.80;;;;;;4991740;28;20908;-60
2023/12/30 10:50:14;;;;;;;2.40;2.08;;;20.60;81.80;;;;;;4991330;28;20555;-58
2023/12/30 10:52:47;;;;;;;2.10;1.80;;;20.70;81.90;;;;;;4992889;28;20833;-59
2023/12/30 10:55:17;;;;;;;2.80;2.45;;;20.70;81.90;;;;;;4983215;28;20195;-59
2023/12/30 10:57:49;;;;;;;2.55;2.03;;;20.70;81.90;;;;;;4992033;28;20252;-59
2023/12/30 11:00:20;;;;;;;3.05;2.10;;;20.70;82.00;;;;;;4989051;28;20647;-59
2023/12/30 11:02:48;;;;;;;4.03;2.80;;;20.70;81.90;;;;;;4993647;28;20311;-59
2023/12/30 11:05:31;;;;;;;2.30;2.13;;;20.70;81.80;;;;;;4992325;28;20584;-57
2023/12/30 11:07:58;;;;;;;2.60;2.40;;;20.70;81.80;;;;;;4993410;28;20273;-59
2023/12/30 11:10:28;;;;;;;2.55;2.35;;;20.70;81.80;;;;;;4991667;28;20470;-58
2023/12/30 11:12:55;;;;;;;2.87;2.10;;;20.70;81.70;;;;;;4992314;28;20238;-59
2023/12/30 11:15:26;;;;;;;3.72;2.00;;;20.70;81.70;;;;;;4993545;28;20580;-59
2023/12/30 11:17:53;;;;;;;5.57;1.90;;;20.70;81.70;;;;;;4992431;28;20735;-57
2023/12/30 11:20:29;;;;;;;6.97;2.60;;;20.80;82.10;;;;;;4988791;28;20195;-56
2023/12/30 11:23:03;;;;;;;2.67;2.10;;;20.80;81.90;;;;;;4987324;28;20207;-52
2023/12/30 11:25:35;;;;;;;3.40;2.60;;;20.80;81.80;;;;;;4998395;28;20326;-59
2023/12/30 11:28:17;;;;;;;13.10;2.10;;;20.80;81.80;;;;;;4999527;28;20457;-60
2023/12/30 11:30:51;;;;;;;2.42;2.10;;;20.80;82.20;;;;;;5002249;28;20816;-61
2023/12/30 11:33:21;;;;;;;2.47;2.00;;;20.80;82.90;;;;;;4998180;28;20221;-60
2023/12/30 11:35:51;;;;;;;1.80;1.67;;;20.80;82.20;;;;;;5002242;28;20197;-59
2023/12/30 11:38:21;;;;;;;4.15;2.13;;;20.80;82.30;;;;;;4998735;28;20509;-53
2023/12/30 11:40:52;;;;;;;2.20;1.80;;;20.80;82.30;;;;;;5003152;28;20196;-56
2023/12/30 11:43:21;;;;;;;3.15;2.17;;;20.80;82.50;;;;;;5000446;28;20483;-59
2023/12/30 11:45:52;;;;;;;2.25;2.05;;;20.80;82.60;;;;;;4997374;28;20409;-62
2023/12/30 11:48:20;;;;;;;2.60;2.10;;;20.80;82.70;;;;;;4992873;28;20218;-60
2023/12/30 11:50:56;;;;;;;3.55;2.30;;;20.80;82.80;;;;;;5001771;28;20993;-58
2023/12/30 11:53:23;;;;;;;3.00;2.60;;;20.90;82.90;;;;;;5001008;28;20202;-54
2023/12/30 11:55:58;;;;;;;1.92;1.50;;;20.90;83.10;;;;;;4999680;28;20656;-55
2023/12/30 11:58:27;;;;;;;2.63;2.00;;;20.90;83.00;;;;;;4994279;28;20883;-57
2023/12/30 12:00:57;;;;;;;2.47;2.20;;;20.90;82.90;;;;;;4999913;28;20901;-60
2023/12/30 12:03:26;;;;;;;8.13;4.33;;;20.90;82.90;;;;;;4997988;28;20473;-59
2023/12/30 12:05:54;;;;;;;2.27;1.90;;;20.90;82.90;;;;;;5002594;28;20468;-58
2023/12/30 12:08:20;;;;;;;1.83;1.70;;;20.90;82.80;;;;;;5001855;28;20462;-57
2023/12/30 12:10:53;;;;;;;2.97;2.20;;;20.90;82.80;;;;;;4997339;28;20504;-54
2023/12/30 12:13:23;;;;;;;3.43;2.53;;;21.00;82.80;;;;;;4999123;28;20468;-55
2023/12/30 12:15:52;;;;;;;3.03;1.77;;;21.00;82.80;;;;;;5005029;28;20462;-56
2023/12/30 12:18:19;;;;;;;2.20;1.47;;;21.00;82.80;;;;;;5000953;28;21160;-55
2023/12/30 12:20:46;;;;;;;2.67;1.60;;;21.00;82.90;;;;;;5000003;28;20462;-52
2023/12/30 12:23:16;;;;;;;2.23;1.90;;;21.00;82.90;;;;;;5004255;28;20458;-50
2023/12/30 12:25:46;;;;;;;2.13;1.90;;;21.00;83.00;;;;;;5005629;28;20466;-55
2023/12/30 12:28:16;;;;;;;3.33;2.30;;;21.00;83.10;;;;;;5003591;28;20474;-56
2023/12/30 12:30:44;;;;;;;3.70;2.40;;;21.10;83.20;;;;;;5000240;28;20814;-53
2023/12/30 12:33:13;;;;;;;2.63;1.95;;;21.10;83.20;;;;;;4993965;28;20462;-56
2023/12/30 12:35:46;;;;;;;2.90;1.60;;;21.10;83.40;;;;;;5007235;28;20196;-53
2023/12/30 12:38:17;;;;;;;1.90;1.60;;;21.10;83.40;;;;;;5003929;28;20457;-55
2023/12/30 12:40:46;;;;;;;3.57;1.80;;;21.10;83.40;;;;;;5003470;28;21282;-61
2023/12/30 12:43:15;;;;;;;5.77;1.53;;;21.20;83.40;;;;;;5004043;28;21133;-60
2023/12/30 12:45:44;;;;;;;1.70;1.60;;;21.20;83.40;;;;;;5003064;28;20465;-63
2023/12/30 12:48:11;;;;;;;1.80;1.63;;;21.10;83.20;;;;;;5007692;28;20472;-57
2023/12/30 12:50:42;;;;;;;2.40;1.57;;;21.20;83.40;;;;;;5007665;28;20461;-59
2023/12/30 12:53:10;;;;;;;2.23;1.97;;;21.20;83.40;;;;;;5005963;28;20473;-61
2023/12/30 12:55:38;;;;;;;3.07;1.87;;;21.30;83.50;;;;;;5007088;28;20462;-57